createdAt,value
2019-05-15T00:01:08.817Z,9.10
2019-05-15T00:03:39.135Z,9.00
2019-05-15T00:06:08.779Z,8.90
2019-05-15T00:08:38.790Z,8.90
2019-05-15T00:11:08.410Z,8.90
2019-05-15T00:13:38.922Z,8.80
2019-05-15T00:16:08.560Z,8.90
2019-05-15T00:18:38.978Z,8.80
2019-05-15T00:21:09.269Z,8.80
2019-05-15T00:23:38.971Z,8.80
2019-05-15T00:26:09.248Z,8.80
2019-05-15T00:28:38.946Z,8.70
2019-05-15T00:31:09.101Z,8.80
2019-05-15T00:33:39.476Z,8.70
2019-05-15T00:36:08.832Z,8.70
2019-05-15T00:38:39.062Z,8.70
2019-05-15T00:41:09.365Z,8.70
2019-05-15T00:43:39.050Z,8.60
2019-05-15T00:46:09.149Z,8.70
2019-05-15T00:48:39.896Z,8.70
2019-05-15T00:51:09.268Z,8.70
2019-05-15T00:53:38.980Z,8.60
2019-05-15T00:56:08.820Z,8.60
2019-05-15T00:58:40.150Z,8.60
2019-05-15T01:01:08.895Z,8.50
2019-05-15T01:03:38.722Z,8.50
2019-05-15T01:06:08.305Z,8.50
2019-05-15T01:08:39.312Z,8.40
2019-05-15T01:11:09.041Z,8.40
2019-05-15T01:13:39.025Z,8.30
2019-05-15T01:16:09.161Z,8.40
2019-05-15T01:18:38.679Z,8.30
2019-05-15T01:21:08.485Z,8.40
2019-05-15T01:23:39.059Z,8.40
2019-05-15T01:26:08.458Z,8.40
2019-05-15T01:28:38.371Z,8.40
2019-05-15T01:31:08.485Z,8.40
2019-05-15T01:33:39.122Z,8.40
2019-05-15T01:36:08.595Z,8.40
2019-05-15T01:38:38.958Z,8.40
2019-05-15T01:41:09.782Z,8.40
2019-05-15T01:43:38.907Z,8.30
2019-05-15T01:46:08.596Z,8.30
2019-05-15T01:48:38.822Z,8.30
2019-05-15T01:51:09.269Z,8.30
2019-05-15T01:53:38.704Z,8.20
2019-05-15T01:56:08.404Z,8.20
2019-05-15T01:58:38.163Z,8.10
2019-05-15T02:01:08.108Z,8.10
2019-05-15T02:03:38.596Z,8.00
2019-05-15T02:06:08.335Z,7.90
2019-05-15T02:08:39.380Z,7.90
2019-05-15T02:11:09.111Z,7.80
2019-05-15T02:13:38.977Z,7.70
2019-05-15T02:16:08.525Z,7.60
2019-05-15T02:18:39.137Z,7.50
2019-05-15T02:21:10.416Z,7.40
2019-05-15T02:23:39.269Z,7.30
2019-05-15T02:26:08.273Z,7.30
2019-05-15T02:28:38.422Z,7.20
2019-05-15T02:31:10.327Z,7.10
2019-05-15T02:33:39.933Z,7.00
2019-05-15T02:36:09.914Z,6.90
2019-05-15T02:38:41.083Z,6.80
2019-05-15T02:41:10.257Z,6.70
2019-05-15T02:43:39.582Z,6.50
2019-05-15T02:46:10.131Z,6.40
2019-05-15T02:48:40.994Z,6.40
2019-05-15T02:51:10.284Z,6.30
2019-05-15T02:53:39.876Z,6.20
2019-05-15T02:56:09.604Z,6.20
2019-05-15T02:58:39.926Z,6.10
2019-05-15T03:01:09.685Z,6.00
2019-05-15T03:03:39.305Z,5.90
2019-05-15T03:06:09.976Z,5.90
2019-05-15T03:08:40.100Z,5.80
2019-05-15T03:11:09.986Z,5.80
2019-05-15T03:13:39.520Z,5.80
2019-05-15T03:16:10.070Z,5.70
2019-05-15T03:18:40.039Z,5.70
2019-05-15T03:21:09.628Z,5.60
2019-05-15T03:23:40.526Z,5.60
2019-05-15T03:26:09.723Z,5.60
2019-05-15T03:28:39.387Z,5.50
2019-05-15T03:31:35.155Z,5.60
2019-05-15T03:33:46.088Z,5.60
2019-05-15T03:36:13.227Z,5.60
2019-05-15T03:38:40.994Z,5.60
2019-05-15T03:41:10.494Z,5.60
2019-05-15T03:43:39.800Z,5.60
2019-05-15T03:46:09.228Z,5.60
2019-05-15T03:48:40.284Z,5.60
2019-05-15T03:51:09.476Z,5.60
2019-05-15T03:53:39.948Z,5.60
2019-05-15T03:56:09.824Z,5.60
2019-05-15T03:58:40.111Z,5.60
2019-05-15T04:01:27.766Z,5.60
2019-05-15T04:03:40.358Z,5.60
2019-05-15T04:06:10.158Z,5.60
2019-05-15T04:08:39.688Z,5.60
2019-05-15T04:11:09.348Z,5.60
2019-05-15T04:13:39.655Z,5.60
2019-05-15T04:16:10.340Z,5.60
2019-05-15T04:18:39.840Z,5.50
2019-05-15T04:21:09.567Z,5.60
2019-05-15T04:23:39.589Z,5.60
2019-05-15T04:26:10.978Z,5.60
2019-05-15T04:28:42.202Z,5.60
2019-05-15T04:31:11.462Z,5.60
2019-05-15T04:33:40.594Z,5.50
2019-05-15T04:36:10.119Z,5.60
2019-05-15T04:38:39.752Z,5.60
2019-05-15T04:41:09.877Z,5.50
2019-05-15T04:43:44.431Z,5.50
2019-05-15T04:46:10.237Z,5.50
2019-05-15T04:48:40.480Z,5.50
2019-05-15T04:51:10.874Z,5.60
2019-05-15T04:53:42.960Z,5.60
2019-05-15T04:56:13.025Z,5.60
2019-05-15T04:58:41.985Z,5.70
2019-05-15T05:01:11.052Z,5.70
2019-05-15T05:03:40.338Z,5.80
2019-05-15T05:06:10.178Z,5.90
2019-05-15T05:08:39.913Z,5.90
2019-05-15T05:11:09.927Z,5.90
2019-05-15T05:13:39.658Z,6.00
2019-05-15T05:16:09.717Z,6.10
2019-05-15T05:18:41.477Z,6.20
2019-05-15T05:21:09.767Z,6.30
2019-05-15T05:23:39.150Z,6.30
2019-05-15T05:26:10.968Z,6.50
2019-05-15T05:28:38.880Z,6.70
2019-05-15T05:31:08.538Z,7.00
2019-05-15T05:33:38.260Z,7.20
2019-05-15T05:36:07.939Z,7.50
2019-05-15T05:38:38.677Z,7.80
2019-05-15T05:41:08.337Z,8.20
2019-05-15T05:43:38.330Z,8.60
2019-05-15T05:46:09.300Z,9.10
2019-05-15T05:48:38.594Z,9.80
2019-05-15T05:51:09.541Z,10.30
2019-05-15T05:53:38.800Z,10.40
2019-05-15T05:56:08.870Z,11.00
2019-05-15T05:58:38.934Z,11.40
2019-05-15T06:01:09.416Z,11.40
2019-05-15T06:03:38.954Z,11.80
2019-05-15T06:06:09.668Z,12.50
2019-05-15T06:08:39.136Z,13.20
2019-05-15T06:11:09.794Z,12.90
2019-05-15T06:13:39.063Z,13.10
2019-05-15T06:16:08.606Z,13.90
2019-05-15T06:18:38.818Z,14.20
2019-05-15T06:21:09.039Z,14.40
2019-05-15T06:23:45.594Z,14.80
2019-05-15T06:26:09.647Z,14.80
2019-05-15T06:28:39.554Z,15.00
2019-05-15T06:31:09.006Z,15.20
2019-05-15T06:33:38.527Z,14.50
2019-05-15T06:36:08.991Z,14.80
2019-05-15T06:38:39.387Z,15.30
2019-05-15T06:41:08.893Z,15.40
2019-05-15T06:43:38.949Z,15.30
2019-05-15T06:46:09.214Z,16.20
2019-05-15T06:48:38.353Z,17.40
2019-05-15T06:51:08.945Z,17.10
2019-05-15T06:53:38.600Z,17.80
2019-05-15T06:56:08.089Z,18.30
2019-05-15T06:58:38.587Z,18.10
2019-05-15T07:01:08.730Z,18.40
2019-05-15T07:03:39.295Z,18.60
2019-05-15T07:06:09.422Z,19.30
2019-05-15T07:08:38.764Z,18.70
2019-05-15T07:11:08.900Z,18.90
2019-05-15T07:13:38.465Z,19.60
2019-05-15T07:16:08.203Z,20.50
2019-05-15T07:18:39.066Z,20.80
2019-05-15T07:21:10.153Z,21.10
2019-05-15T07:23:38.973Z,20.60
2019-05-15T07:26:09.411Z,21.40
2019-05-15T07:28:38.754Z,21.50
2019-05-15T07:31:11.459Z,22.20
2019-05-15T07:33:43.431Z,22.50
2019-05-15T07:36:09.426Z,22.90
2019-05-15T07:38:39.190Z,22.60
2019-05-15T07:41:10.191Z,22.80
2019-05-15T07:43:39.021Z,22.60
2019-05-15T07:46:08.498Z,22.90
2019-05-15T07:48:38.394Z,23.50
2019-05-15T07:51:11.654Z,23.10
2019-05-15T07:53:38.698Z,23.20
2019-05-15T07:56:11.943Z,22.60
2019-05-15T07:58:38.715Z,22.20
2019-05-15T08:01:09.913Z,21.90
2019-05-15T08:03:55.022Z,22.40
2019-05-15T08:06:09.369Z,23.00
2019-05-15T08:08:39.329Z,22.80
2019-05-15T08:11:20.344Z,21.70
2019-05-15T08:13:39.462Z,22.10
2019-05-15T08:16:08.799Z,22.00
2019-05-15T08:18:39.323Z,22.00
2019-05-15T08:21:08.966Z,22.00
2019-05-15T08:23:39.220Z,21.10
2019-05-15T08:26:08.748Z,21.50
2019-05-15T08:28:38.345Z,22.10
2019-05-15T08:31:10.208Z,23.00
2019-05-15T08:33:38.859Z,22.70
2019-05-15T08:36:08.546Z,22.60
2019-05-15T08:38:38.355Z,22.40
2019-05-15T08:41:11.245Z,23.50
2019-05-15T08:43:38.455Z,24.20
2019-05-15T08:46:08.329Z,25.00
2019-05-15T08:48:38.303Z,25.60
2019-05-15T08:51:08.747Z,25.60
2019-05-15T08:53:38.194Z,26.00
2019-05-15T08:56:08.429Z,23.70
2019-05-15T08:58:38.315Z,24.80
2019-05-15T09:01:09.844Z,26.10
2019-05-15T09:03:38.308Z,26.40
2019-05-15T09:06:09.067Z,25.50
2019-05-15T09:08:39.002Z,26.10
2019-05-15T09:11:09.047Z,26.00
2019-05-15T09:13:43.553Z,26.60
2019-05-15T09:16:09.348Z,26.60
2019-05-15T09:18:39.105Z,27.10
2019-05-15T09:21:08.978Z,27.10
2019-05-15T09:23:38.793Z,26.40
2019-05-15T09:26:09.270Z,26.10
2019-05-15T09:28:39.283Z,24.80
2019-05-15T09:31:08.712Z,25.10
2019-05-15T09:33:38.622Z,24.40
2019-05-15T09:36:09.018Z,25.00
2019-05-15T09:38:39.131Z,25.20
2019-05-15T09:41:09.114Z,26.30
2019-05-15T09:43:38.925Z,26.30
2019-05-15T09:46:10.392Z,26.70
2019-05-15T09:48:39.703Z,26.50
2019-05-15T09:51:09.332Z,26.50
2019-05-15T09:53:39.339Z,27.70
2019-05-15T09:56:08.796Z,27.50
2019-05-15T09:58:38.264Z,26.80
2019-05-15T10:01:08.421Z,26.70
2019-05-15T10:03:39.104Z,27.00
2019-05-15T10:06:08.694Z,26.80
2019-05-15T10:08:39.845Z,27.10
2019-05-15T10:11:09.159Z,27.50
2019-05-15T10:13:38.665Z,27.00
2019-05-15T10:16:08.321Z,26.80
2019-05-15T10:18:38.944Z,26.80
2019-05-15T10:21:09.144Z,27.10
2019-05-15T10:23:40.479Z,26.70
2019-05-15T10:26:13.558Z,22.10
2019-05-15T10:28:40.002Z,21.80
2019-05-15T10:31:09.549Z,22.90
2019-05-15T10:33:39.421Z,23.20
2019-05-15T10:36:08.684Z,22.90
2019-05-15T10:38:39.254Z,22.90
2019-05-15T10:41:14.006Z,23.40
2019-05-15T10:43:46.487Z,23.20
2019-05-15T10:46:13.264Z,22.20
2019-05-15T10:48:41.075Z,21.70
2019-05-15T10:51:10.592Z,21.10
2019-05-15T10:53:39.661Z,20.50
2019-05-15T10:56:09.085Z,20.20
2019-05-15T10:58:39.198Z,20.40
2019-05-15T11:01:11.257Z,20.20
2019-05-15T11:03:40.128Z,19.50
2019-05-15T11:06:09.408Z,19.90
2019-05-15T11:08:40.416Z,19.70
2019-05-15T11:11:09.459Z,18.90
2019-05-15T11:13:38.497Z,19.10
2019-05-15T11:16:07.555Z,18.50
2019-05-15T11:18:39.062Z,18.30
2019-05-15T11:21:08.243Z,18.00
2019-05-15T11:23:39.458Z,18.40
2019-05-15T11:26:09.067Z,18.50
2019-05-15T11:28:39.146Z,18.40
2019-05-15T11:31:10.324Z,18.60
2019-05-15T11:33:39.377Z,18.50
2019-05-15T11:36:08.373Z,17.80
2019-05-15T11:38:38.308Z,18.10
2019-05-15T11:41:08.725Z,18.30
2019-05-15T11:43:38.681Z,17.70
2019-05-15T11:46:10.030Z,17.50
2019-05-15T11:48:39.326Z,17.40
2019-05-15T11:51:09.491Z,17.40
2019-05-15T11:53:39.729Z,17.30
2019-05-15T11:56:09.650Z,16.90
2019-05-15T11:58:39.098Z,16.80
2019-05-15T12:01:08.722Z,17.30
2019-05-15T12:03:38.571Z,16.80
2019-05-15T12:06:18.650Z,16.60
2019-05-15T12:08:38.728Z,16.80
2019-05-15T12:11:11.872Z,16.90
2019-05-15T12:13:38.482Z,16.60
2019-05-15T12:16:07.435Z,16.60
2019-05-15T12:18:38.846Z,16.40
2019-05-15T12:21:07.154Z,16.40
2019-05-15T12:23:38.093Z,16.40
2019-05-15T12:26:09.154Z,16.50
2019-05-15T12:28:40.612Z,16.60
2019-05-15T12:31:08.978Z,16.70
2019-05-15T12:33:38.640Z,16.40
2019-05-15T12:36:10.809Z,16.60
2019-05-15T12:38:39.809Z,16.30
2019-05-15T13:01:18.213Z,17.10
2019-05-15T13:03:46.076Z,16.80
2019-05-15T13:06:15.084Z,16.60
2019-05-15T13:08:43.973Z,16.70
2019-05-15T13:11:15.253Z,16.60
2019-05-15T13:13:44.001Z,16.40
2019-05-15T13:16:13.113Z,16.50
2019-05-15T13:18:42.111Z,16.60
2019-05-15T13:21:11.107Z,16.80
2019-05-15T13:23:40.070Z,16.90
2019-05-15T13:26:23.031Z,16.60
2019-05-15T13:28:39.827Z,16.60
2019-05-15T13:31:09.268Z,16.80
2019-05-15T13:33:38.714Z,16.90
2019-05-15T13:36:08.966Z,16.90
2019-05-15T13:38:38.299Z,17.10
2019-05-15T13:41:09.377Z,17.10
2019-05-15T13:43:38.614Z,17.10
2019-05-15T13:46:08.836Z,17.00
2019-05-15T13:48:38.735Z,17.00
2019-05-15T13:51:07.885Z,17.10
2019-05-15T13:53:38.522Z,16.90
2019-05-15T13:56:07.849Z,16.80
2019-05-15T13:58:38.851Z,17.00
2019-05-15T14:01:09.423Z,17.20
2019-05-15T14:03:39.096Z,17.40
2019-05-15T14:06:09.388Z,17.50
2019-05-15T14:08:39.078Z,17.40
2019-05-15T14:11:08.816Z,17.20
2019-05-15T14:13:39.173Z,17.00
2019-05-15T14:16:09.741Z,17.00
2019-05-15T14:18:39.128Z,17.00
2019-05-15T14:21:08.954Z,17.00
2019-05-15T14:23:38.514Z,16.80
2019-05-15T14:26:17.909Z,16.80
2019-05-15T14:28:38.909Z,17.10
2019-05-15T14:31:09.727Z,17.20
2019-05-15T14:33:39.044Z,17.10
2019-05-15T14:36:08.560Z,17.00
2019-05-15T14:38:37.982Z,17.10
2019-05-15T14:41:08.807Z,16.90
2019-05-15T14:43:38.440Z,16.80
2019-05-15T14:46:08.145Z,17.10
2019-05-15T14:48:38.615Z,17.10
2019-05-15T14:51:08.683Z,16.80
2019-05-15T14:53:38.546Z,16.90
2019-05-15T14:56:08.502Z,16.90
2019-05-15T14:58:38.727Z,16.80
2019-05-15T15:01:12.396Z,16.80
2019-05-15T15:03:39.238Z,17.00
2019-05-15T15:06:08.770Z,17.00
2019-05-15T15:08:37.969Z,16.80
2019-05-15T15:11:08.793Z,16.80
2019-05-15T15:13:38.179Z,17.00
2019-05-15T15:16:08.471Z,16.70
2019-05-15T15:18:38.636Z,16.60
2019-05-15T15:21:08.618Z,16.80
2019-05-15T15:23:38.758Z,16.90
2019-05-15T15:26:08.523Z,16.90
2019-05-15T15:28:40.013Z,16.80
2019-05-15T15:31:08.456Z,16.80
2019-05-15T15:33:39.164Z,16.80
2019-05-15T15:36:08.835Z,17.00
2019-05-15T15:38:43.424Z,17.20
2019-05-15T15:41:08.758Z,17.10
2019-05-15T15:43:38.717Z,16.90
2019-05-15T15:46:08.633Z,16.90
2019-05-15T15:48:39.053Z,17.00
2019-05-15T15:51:09.140Z,17.00
2019-05-15T15:53:39.091Z,16.90
2019-05-15T15:56:10.665Z,16.90
2019-05-15T15:58:39.267Z,16.80
2019-05-15T16:01:09.021Z,16.80
2019-05-15T16:03:38.170Z,16.60
2019-05-15T16:06:07.173Z,16.60
2019-05-15T16:08:51.203Z,16.60
2019-05-15T16:11:08.267Z,16.50
2019-05-15T16:13:38.640Z,16.50
2019-05-15T16:16:08.658Z,16.50
2019-05-15T16:18:38.373Z,16.50
2019-05-15T16:21:08.201Z,16.60
2019-05-15T16:23:38.544Z,16.70
2019-05-15T16:26:09.238Z,16.60
2019-05-15T16:28:38.930Z,16.50
2019-05-15T16:31:08.303Z,16.50
2019-05-15T16:33:38.993Z,16.40
2019-05-15T16:36:08.868Z,16.30
2019-05-15T16:38:38.921Z,16.40
2019-05-15T16:41:08.955Z,16.50
2019-05-15T16:43:38.315Z,16.60
2019-05-15T16:46:09.162Z,16.60
2019-05-15T16:48:39.011Z,16.70
2019-05-15T16:51:09.658Z,16.80
2019-05-15T16:53:38.962Z,16.90
2019-05-15T16:56:08.205Z,16.70
2019-05-15T16:58:38.541Z,16.50
2019-05-15T17:01:07.727Z,16.40
2019-05-15T17:03:38.087Z,16.20
2019-05-15T17:06:09.256Z,16.10
2019-05-15T17:08:38.105Z,16.00
2019-05-15T17:11:08.107Z,16.20
2019-05-15T17:13:39.459Z,16.20
2019-05-15T17:16:08.030Z,16.10
2019-05-15T17:18:38.129Z,16.20
2019-05-15T17:21:09.947Z,16.20
2019-05-15T17:23:38.641Z,16.10
2019-05-15T17:26:08.864Z,16.10
2019-05-15T17:28:38.324Z,16.10
2019-05-15T17:31:09.224Z,16.10
2019-05-15T17:33:38.443Z,16.10
2019-05-15T17:36:07.449Z,16.00
2019-05-15T17:38:38.077Z,15.80
2019-05-15T17:41:08.329Z,15.80
2019-05-15T17:43:37.899Z,15.70
2019-05-15T17:46:08.914Z,15.70
2019-05-15T17:48:38.975Z,15.70
2019-05-15T17:51:09.143Z,15.70
2019-05-15T17:53:38.482Z,15.70
2019-05-15T17:56:07.837Z,15.80
2019-05-15T17:58:38.124Z,15.70
2019-05-15T18:01:08.816Z,15.60
2019-05-15T18:03:39.239Z,15.60
2019-05-15T18:06:08.518Z,15.40
2019-05-15T18:08:39.036Z,15.50
2019-05-15T18:11:08.301Z,15.50
2019-05-15T18:13:43.035Z,15.40
2019-05-15T18:16:13.810Z,15.40
2019-05-15T18:18:43.026Z,15.40
2019-05-15T18:21:12.021Z,15.40
2019-05-15T18:23:41.231Z,15.40
2019-05-15T18:26:10.249Z,15.30
2019-05-15T18:28:39.396Z,15.30
2019-05-15T18:31:08.953Z,15.20
2019-05-15T18:33:39.819Z,15.20
2019-05-15T18:36:09.057Z,15.00
2019-05-15T18:38:38.862Z,14.80
2019-05-15T18:41:09.076Z,14.70
2019-05-15T18:43:38.577Z,14.50
2019-05-15T18:46:08.991Z,14.50
2019-05-15T18:48:38.169Z,14.40
2019-05-15T18:51:08.065Z,14.30
2019-05-15T18:53:38.830Z,14.30
2019-05-15T18:56:08.967Z,14.30
2019-05-15T18:58:38.798Z,14.20
2019-05-15T19:01:09.385Z,14.00
2019-05-15T19:03:38.679Z,14.10
2019-05-15T19:06:08.884Z,13.90
2019-05-15T19:08:38.744Z,13.80
2019-05-15T19:11:08.324Z,13.80
2019-05-15T19:13:41.998Z,13.80
2019-05-15T19:16:11.030Z,13.60
2019-05-15T19:18:40.305Z,13.60
2019-05-15T19:21:10.551Z,13.40
2019-05-15T19:23:40.433Z,13.40
2019-05-15T19:26:11.755Z,13.30
2019-05-15T19:28:42.889Z,13.30
2019-05-15T19:31:29.792Z,13.20
2019-05-15T19:33:56.324Z,13.00
2019-05-15T19:36:27.710Z,12.90
2019-05-15T19:38:56.885Z,12.90
2019-05-15T19:41:26.275Z,12.90
2019-05-15T19:43:55.381Z,12.80
2019-05-15T19:46:24.883Z,12.70
2019-05-15T19:48:54.236Z,12.60
2019-05-15T19:51:23.175Z,12.60
2019-05-15T19:53:52.730Z,12.70
2019-05-15T19:56:21.741Z,12.60
2019-05-15T19:58:50.784Z,12.60
2019-05-15T20:01:20.565Z,12.60
2019-05-15T20:03:53.069Z,12.50
2019-05-15T20:06:22.954Z,12.50
2019-05-15T20:08:52.447Z,12.60
2019-05-15T20:11:21.490Z,12.60
2019-05-15T20:13:51.513Z,12.60
2019-05-15T20:16:21.391Z,12.50
2019-05-15T20:18:50.553Z,12.50
2019-05-15T20:21:19.567Z,12.60
2019-05-15T20:23:49.220Z,12.60
2019-05-15T20:26:18.490Z,12.60
2019-05-15T20:28:48.381Z,12.50
2019-05-15T20:31:18.718Z,12.40
2019-05-15T20:33:52.124Z,12.50
2019-05-15T20:36:19.125Z,12.50
2019-05-15T20:38:48.480Z,12.50
2019-05-15T20:41:18.686Z,12.60
2019-05-15T20:43:49.153Z,12.40
2019-05-15T20:46:19.317Z,12.40
2019-05-15T20:48:48.826Z,12.40
2019-05-15T20:51:18.587Z,12.30
2019-05-15T20:53:48.598Z,12.20
2019-05-15T20:56:17.902Z,12.10
2019-05-15T20:58:47.802Z,12.00
2019-05-15T21:01:18.274Z,12.00
2019-05-15T21:03:50.359Z,12.00
2019-05-15T21:06:18.524Z,11.80
2019-05-15T21:08:48.811Z,11.70
2019-05-15T21:11:18.155Z,11.70
2019-05-15T21:13:49.183Z,11.70
2019-05-15T21:16:18.863Z,11.60
2019-05-15T21:18:48.125Z,11.50
2019-05-15T21:21:19.098Z,11.40
2019-05-15T21:23:49.146Z,11.40
2019-05-15T21:26:18.853Z,11.30
2019-05-15T21:28:48.378Z,11.40
2019-05-15T21:31:21.721Z,11.30
2019-05-15T21:33:50.318Z,11.20
2019-05-15T21:36:19.551Z,11.10
2019-05-15T21:38:48.963Z,11.20
2019-05-15T21:41:18.805Z,11.10
2019-05-15T21:43:48.236Z,11.00
2019-05-15T21:46:18.962Z,11.00
2019-05-15T21:48:48.691Z,11.00
2019-05-15T21:51:18.643Z,10.90
2019-05-15T21:53:47.974Z,10.80
2019-05-15T21:56:18.825Z,10.70
2019-05-15T21:58:48.317Z,10.60
2019-05-15T22:01:19.673Z,10.60
2019-05-15T22:03:48.521Z,10.60
2019-05-15T22:06:18.571Z,10.50
2019-05-15T22:08:48.618Z,10.50
2019-05-15T22:11:18.835Z,10.50
2019-05-15T22:13:48.854Z,10.50
2019-05-15T22:16:19.388Z,10.40
2019-05-15T22:18:48.409Z,10.30
2019-05-15T22:21:18.601Z,10.20
2019-05-15T22:23:47.856Z,10.30
2019-05-15T22:26:18.527Z,10.20
2019-05-15T22:28:48.953Z,10.20
2019-05-15T22:31:18.163Z,10.10
2019-05-15T22:33:47.967Z,10.20
2019-05-15T22:36:18.822Z,10.10
2019-05-15T22:38:48.287Z,10.00
2019-05-15T22:41:19.226Z,10.00
2019-05-15T22:43:48.592Z,9.90
2019-05-15T22:46:18.645Z,9.80
2019-05-15T22:48:48.570Z,9.80
2019-05-15T22:51:18.525Z,9.70
2019-05-15T22:53:48.813Z,9.80
2019-05-15T22:56:18.290Z,9.80
2019-05-15T22:58:48.023Z,9.60
2019-05-15T23:01:18.782Z,9.60
2019-05-15T23:03:48.048Z,9.50
2019-05-15T23:06:17.897Z,9.50
2019-05-15T23:08:48.943Z,9.50
2019-05-15T23:11:18.435Z,9.50
2019-05-15T23:13:48.320Z,9.40
2019-05-15T23:16:18.376Z,9.40
2019-05-15T23:18:48.482Z,9.40
2019-05-15T23:21:18.474Z,9.40
2019-05-15T23:23:48.772Z,9.40
2019-05-15T23:26:18.133Z,9.40
2019-05-15T23:28:48.110Z,9.30
2019-05-15T23:31:18.834Z,9.30
2019-05-15T23:33:48.300Z,9.10
2019-05-15T23:36:18.035Z,9.20
2019-05-15T23:38:48.068Z,9.20
2019-05-15T23:41:18.902Z,9.10
2019-05-15T23:43:48.414Z,9.00
2019-05-15T23:46:18.403Z,8.90
2019-05-15T23:48:48.520Z,9.00
2019-05-15T23:51:19.022Z,8.80
2019-05-15T23:53:48.496Z,8.90
2019-05-15T23:56:19.051Z,8.90
2019-05-15T23:58:48.199Z,8.90
